sensor_id;sensor_type;location;lat;lon;timestamp;temperature;humidity
23544;DHT22;11950;51.230;4.012;2023-11-19T00:00:00;15.40;99.90
23544;DHT22;11950;51.230;4.012;2023-11-19T00:02:26;15.50;99.90
23544;DHT22;11950;51.230;4.012;2023-11-19T00:04:53;15.50;99.90
23544;DHT22;11950;51.230;4.012;2023-11-19T00:07:19;15.40;99.90
23544;DHT22;11950;51.230;4.012;2023-11-19T00:09:46;15.40;99.90
23544;DHT22;11950;51.230;4.012;2023-11-19T00:12:12;15.40;99.90
23544;DHT22;11950;51.230;4.012;2023-11-19T00:14:39;15.40;99.90
23544;DHT22;11950;51.230;4.012;2023-11-19T00:17:05;15.40;99.90
23544;DHT22;11950;51.230;4.012;2023-11-19T00:19:31;15.40;99.90
23544;DHT22;11950;51.230;4.012;2023-11-19T00:21:57;15.40;99.90
23544;DHT22;11950;51.230;4.012;2023-11-19T00:24:29;15.40;99.90
23544;DHT22;11950;51.230;4.012;2023-11-19T00:26:55;15.40;99.90
23544;DHT22;11950;51.230;4.012;2023-11-19T00:29:22;15.40;99.90
23544;DHT22;11950;51.230;4.012;2023-11-19T00:31:48;15.40;99.90
23544;DHT22;11950;51.230;4.012;2023-11-19T00:34:15;15.40;99.90
23544;DHT22;11950;51.230;4.012;2023-11-19T00:36:41;15.40;99.90
23544;DHT22;11950;51.230;4.012;2023-11-19T00:39:07;15.40;99.90
23544;DHT22;11950;51.230;4.012;2023-11-19T00:41:33;15.30;99.90
23544;DHT22;11950;51.230;4.012;2023-11-19T00:43:59;15.30;99.90
23544;DHT22;11950;51.230;4.012;2023-11-19T00:46:26;15.30;99.90
23544;DHT22;11950;51.230;4.012;2023-11-19T00:48:52;15.30;99.90
23544;DHT22;11950;51.230;4.012;2023-11-19T00:51:19;15.30;99.90
23544;DHT22;11950;51.230;4.012;2023-11-19T00:53:45;15.30;99.90
23544;DHT22;11950;51.230;4.012;2023-11-19T00:56:11;15.30;99.90
23544;DHT22;11950;51.230;4.012;2023-11-19T00:58:38;15.30;99.90
23544;DHT22;11950;51.230;4.012;2023-11-19T01:01:04;15.30;99.90
23544;DHT22;11950;51.230;4.012;2023-11-19T01:03:31;15.30;99.90
23544;DHT22;11950;51.230;4.012;2023-11-19T01:05:59;15.30;99.90
23544;DHT22;11950;51.230;4.012;2023-11-19T01:08:27;15.30;99.90
23544;DHT22;11950;51.230;4.012;2023-11-19T01:10:53;15.20;99.90
23544;DHT22;11950;51.230;4.012;2023-11-19T01:13:20;15.20;99.90
23544;DHT22;11950;51.230;4.012;2023-11-19T01:15:46;15.20;99.90
23544;DHT22;11950;51.230;4.012;2023-11-19T01:18:13;15.20;99.90
23544;DHT22;11950;51.230;4.012;2023-11-19T01:20:40;15.10;99.90
23544;DHT22;11950;51.230;4.012;2023-11-19T01:23:06;15.10;99.90
23544;DHT22;11950;51.230;4.012;2023-11-19T01:25:33;15.10;99.90
23544;DHT22;11950;51.230;4.012;2023-11-19T01:28:01;15.10;99.90
23544;DHT22;11950;51.230;4.012;2023-11-19T01:30:28;15.00;99.90
23544;DHT22;11950;51.230;4.012;2023-11-19T01:32:54;15.00;99.90
23544;DHT22;11950;51.230;4.012;2023-11-19T01:35:21;14.90;99.90
23544;DHT22;11950;51.230;4.012;2023-11-19T01:37:49;14.90;99.90
23544;DHT22;11950;51.230;4.012;2023-11-19T01:40:20;14.90;99.90
23544;DHT22;11950;51.230;4.012;2023-11-19T01:42:47;14.90;99.90
23544;DHT22;11950;51.230;4.012;2023-11-19T01:45:27;14.80;99.90
23544;DHT22;11950;51.230;4.012;2023-11-19T01:47:55;14.80;99.90
23544;DHT22;11950;51.230;4.012;2023-11-19T01:50:23;14.80;99.90
23544;DHT22;11950;51.230;4.012;2023-11-19T01:52:54;14.80;99.90
23544;DHT22;11950;51.230;4.012;2023-11-19T01:55:21;14.80;99.90
23544;DHT22;11950;51.230;4.012;2023-11-19T01:57:49;14.90;99.90
23544;DHT22;11950;51.230;4.012;2023-11-19T02:00:18;14.80;99.90
23544;DHT22;11950;51.230;4.012;2023-11-19T02:02:46;14.90;99.90
23544;DHT22;11950;51.230;4.012;2023-11-19T02:05:14;14.80;99.90
23544;DHT22;11950;51.230;4.012;2023-11-19T02:07:40;14.80;99.90
23544;DHT22;11950;51.230;4.012;2023-11-19T02:10:07;14.80;99.90
23544;DHT22;11950;51.230;4.012;2023-11-19T02:12:33;14.80;99.90
23544;DHT22;11950;51.230;4.012;2023-11-19T02:15:00;14.80;99.90
23544;DHT22;11950;51.230;4.012;2023-11-19T02:17:30;14.80;99.90
23544;DHT22;11950;51.230;4.012;2023-11-19T02:20:07;14.70;99.90
23544;DHT22;11950;51.230;4.012;2023-11-19T02:22:37;14.70;99.90
23544;DHT22;11950;51.230;4.012;2023-11-19T02:25:07;14.70;99.90
23544;DHT22;11950;51.230;4.012;2023-11-19T02:27:58;14.70;99.90
23544;DHT22;11950;51.230;4.012;2023-11-19T02:30:26;14.70;99.90
23544;DHT22;11950;51.230;4.012;2023-11-19T02:32:53;14.70;99.90
23544;DHT22;11950;51.230;4.012;2023-11-19T02:35:20;14.70;99.90
23544;DHT22;11950;51.230;4.012;2023-11-19T02:37:47;14.70;99.90
23544;DHT22;11950;51.230;4.012;2023-11-19T02:40:14;14.60;99.90
23544;DHT22;11950;51.230;4.012;2023-11-19T02:42:40;14.70;99.90
23544;DHT22;11950;51.230;4.012;2023-11-19T02:45:08;14.60;99.90
23544;DHT22;11950;51.230;4.012;2023-11-19T02:47:43;14.60;99.90
23544;DHT22;11950;51.230;4.012;2023-11-19T02:50:10;14.50;99.90
23544;DHT22;11950;51.230;4.012;2023-11-19T02:52:41;14.50;99.90
23544;DHT22;11950;51.230;4.012;2023-11-19T02:55:09;14.50;99.90
23544;DHT22;11950;51.230;4.012;2023-11-19T02:57:36;14.50;99.90
23544;DHT22;11950;51.230;4.012;2023-11-19T03:00:03;14.50;99.90
23544;DHT22;11950;51.230;4.012;2023-11-19T03:02:41;14.50;99.90
23544;DHT22;11950;51.230;4.012;2023-11-19T03:05:20;14.50;99.90
23544;DHT22;11950;51.230;4.012;2023-11-19T03:07:46;14.50;99.90
23544;DHT22;11950;51.230;4.012;2023-11-19T03:10:13;14.50;99.90
23544;DHT22;11950;51.230;4.012;2023-11-19T03:12:43;14.50;99.90
23544;DHT22;11950;51.230;4.012;2023-11-19T03:15:10;14.40;99.90
23544;DHT22;11950;51.230;4.012;2023-11-19T03:17:41;14.50;99.90
23544;DHT22;11950;51.230;4.012;2023-11-19T03:20:10;14.50;99.90
23544;DHT22;11950;51.230;4.012;2023-11-19T03:22:37;14.40;99.90
23544;DHT22;11950;51.230;4.012;2023-11-19T03:25:04;14.50;99.90
23544;DHT22;11950;51.230;4.012;2023-11-19T03:27:30;14.40;99.90
23544;DHT22;11950;51.230;4.012;2023-11-19T03:29:57;14.40;99.90
23544;DHT22;11950;51.230;4.012;2023-11-19T03:32:23;14.40;99.90
23544;DHT22;11950;51.230;4.012;2023-11-19T03:34:49;14.40;99.90
23544;DHT22;11950;51.230;4.012;2023-11-19T03:37:15;14.40;99.90
23544;DHT22;11950;51.230;4.012;2023-11-19T03:39:43;14.40;99.90
23544;DHT22;11950;51.230;4.012;2023-11-19T03:42:09;14.30;99.90
23544;DHT22;11950;51.230;4.012;2023-11-19T03:44:35;14.30;99.90
23544;DHT22;11950;51.230;4.012;2023-11-19T03:47:02;14.30;99.90
23544;DHT22;11950;51.230;4.012;2023-11-19T03:49:28;14.30;99.90
23544;DHT22;11950;51.230;4.012;2023-11-19T03:51:54;14.30;99.90
23544;DHT22;11950;51.230;4.012;2023-11-19T03:54:21;14.30;99.90
23544;DHT22;11950;51.230;4.012;2023-11-19T03:56:49;14.20;99.90
23544;DHT22;11950;51.230;4.012;2023-11-19T03:59:15;14.20;99.90
23544;DHT22;11950;51.230;4.012;2023-11-19T04:01:41;14.20;99.90
23544;DHT22;11950;51.230;4.012;2023-11-19T04:04:07;14.20;99.90
23544;DHT22;11950;51.230;4.012;2023-11-19T04:06:33;14.20;99.90
23544;DHT22;11950;51.230;4.012;2023-11-19T04:09:00;14.20;99.90
23544;DHT22;11950;51.230;4.012;2023-11-19T04:11:27;14.20;99.90
23544;DHT22;11950;51.230;4.012;2023-11-19T04:13:53;14.20;99.90
23544;DHT22;11950;51.230;4.012;2023-11-19T04:16:26;14.20;99.90
23544;DHT22;11950;51.230;4.012;2023-11-19T04:18:54;14.20;99.90
23544;DHT22;11950;51.230;4.012;2023-11-19T04:21:20;14.10;99.90
23544;DHT22;11950;51.230;4.012;2023-11-19T04:23:46;14.10;99.90
23544;DHT22;11950;51.230;4.012;2023-11-19T04:26:13;14.10;99.90
23544;DHT22;11950;51.230;4.012;2023-11-19T04:28:39;14.10;99.90
23544;DHT22;11950;51.230;4.012;2023-11-19T04:31:06;14.00;99.90
23544;DHT22;11950;51.230;4.012;2023-11-19T04:33:32;14.00;99.90
23544;DHT22;11950;51.230;4.012;2023-11-19T04:35:58;14.00;99.90
23544;DHT22;11950;51.230;4.012;2023-11-19T04:38:24;14.00;99.90
23544;DHT22;11950;51.230;4.012;2023-11-19T04:40:52;14.00;99.90
23544;DHT22;11950;51.230;4.012;2023-11-19T04:43:19;14.00;99.90
23544;DHT22;11950;51.230;4.012;2023-11-19T04:45:46;13.90;99.90
23544;DHT22;11950;51.230;4.012;2023-11-19T04:48:13;13.90;99.90
23544;DHT22;11950;51.230;4.012;2023-11-19T04:50:39;13.90;99.90
23544;DHT22;11950;51.230;4.012;2023-11-19T04:53:05;13.90;99.90
23544;DHT22;11950;51.230;4.012;2023-11-19T04:55:31;13.90;99.90
23544;DHT22;11950;51.230;4.012;2023-11-19T04:57:58;13.90;99.90
23544;DHT22;11950;51.230;4.012;2023-11-19T05:00:24;13.80;99.90
23544;DHT22;11950;51.230;4.012;2023-11-19T05:02:51;13.90;99.90
23544;DHT22;11950;51.230;4.012;2023-11-19T05:05:18;13.90;99.90
23544;DHT22;11950;51.230;4.012;2023-11-19T05:07:44;13.80;99.90
23544;DHT22;11950;51.230;4.012;2023-11-19T05:10:10;13.80;99.90
23544;DHT22;11950;51.230;4.012;2023-11-19T05:12:37;13.80;99.90
23544;DHT22;11950;51.230;4.012;2023-11-19T05:15:03;13.80;99.90
23544;DHT22;11950;51.230;4.012;2023-11-19T05:17:30;13.80;99.90
23544;DHT22;11950;51.230;4.012;2023-11-19T05:19:56;13.70;99.90
23544;DHT22;11950;51.230;4.012;2023-11-19T05:22:22;13.70;99.90
23544;DHT22;11950;51.230;4.012;2023-11-19T05:24:48;13.70;99.90
23544;DHT22;11950;51.230;4.012;2023-11-19T05:27:15;13.60;99.90
23544;DHT22;11950;51.230;4.012;2023-11-19T05:29:41;13.60;99.90
23544;DHT22;11950;51.230;4.012;2023-11-19T05:32:10;13.60;99.90
23544;DHT22;11950;51.230;4.012;2023-11-19T05:34:36;13.60;99.90
23544;DHT22;11950;51.230;4.012;2023-11-19T05:37:02;13.60;99.90
23544;DHT22;11950;51.230;4.012;2023-11-19T05:39:28;13.50;99.90
23544;DHT22;11950;51.230;4.012;2023-11-19T05:41:55;13.50;99.90
23544;DHT22;11950;51.230;4.012;2023-11-19T05:44:21;13.50;99.90
23544;DHT22;11950;51.230;4.012;2023-11-19T05:46:48;13.50;99.90
23544;DHT22;11950;51.230;4.012;2023-11-19T05:49:14;13.40;99.90
23544;DHT22;11950;51.230;4.012;2023-11-19T05:51:40;13.40;99.90
23544;DHT22;11950;51.230;4.012;2023-11-19T05:54:08;13.40;99.90
23544;DHT22;11950;51.230;4.012;2023-11-19T05:56:36;13.40;99.90
23544;DHT22;11950;51.230;4.012;2023-11-19T05:59:03;13.40;99.90
23544;DHT22;11950;51.230;4.012;2023-11-19T06:01:29;13.40;99.90
23544;DHT22;11950;51.230;4.012;2023-11-19T06:03:56;13.50;99.90
23544;DHT22;11950;51.230;4.012;2023-11-19T06:06:22;13.40;99.90
23544;DHT22;11950;51.230;4.012;2023-11-19T06:08:48;13.50;99.90
23544;DHT22;11950;51.230;4.012;2023-11-19T06:11:16;13.50;99.90
23544;DHT22;11950;51.230;4.012;2023-11-19T06:13:46;13.40;99.90
23544;DHT22;11950;51.230;4.012;2023-11-19T06:16:13;13.40;99.90
23544;DHT22;11950;51.230;4.012;2023-11-19T06:18:39;13.30;99.90
23544;DHT22;11950;51.230;4.012;2023-11-19T06:21:10;13.30;99.90
23544;DHT22;11950;51.230;4.012;2023-11-19T06:23:36;13.40;99.90
23544;DHT22;11950;51.230;4.012;2023-11-19T06:26:03;13.40;99.90
23544;DHT22;11950;51.230;4.012;2023-11-19T06:28:31;13.30;99.90
23544;DHT22;11950;51.230;4.012;2023-11-19T06:30:58;13.30;99.90
23544;DHT22;11950;51.230;4.012;2023-11-19T06:33:24;13.30;99.90
23544;DHT22;11950;51.230;4.012;2023-11-19T06:35:51;13.30;99.90
23544;DHT22;11950;51.230;4.012;2023-11-19T06:38:17;13.20;99.90
23544;DHT22;11950;51.230;4.012;2023-11-19T06:40:44;13.20;99.90
23544;DHT22;11950;51.230;4.012;2023-11-19T06:43:10;13.20;99.90
23544;DHT22;11950;51.230;4.012;2023-11-19T06:45:36;13.20;99.90
23544;DHT22;11950;51.230;4.012;2023-11-19T06:48:06;13.10;99.90
23544;DHT22;11950;51.230;4.012;2023-11-19T06:50:32;13.10;99.90
23544;DHT22;11950;51.230;4.012;2023-11-19T06:52:58;13.10;99.90
23544;DHT22;11950;51.230;4.012;2023-11-19T06:55:26;13.00;99.90
23544;DHT22;11950;51.230;4.012;2023-11-19T06:57:52;13.00;99.90
23544;DHT22;11950;51.230;4.012;2023-11-19T07:00:19;13.00;99.90
23544;DHT22;11950;51.230;4.012;2023-11-19T07:02:45;13.00;99.90
23544;DHT22;11950;51.230;4.012;2023-11-19T07:05:11;12.90;99.90
23544;DHT22;11950;51.230;4.012;2023-11-19T07:07:39;12.90;99.90
23544;DHT22;11950;51.230;4.012;2023-11-19T07:10:06;12.90;99.90
23544;DHT22;11950;51.230;4.012;2023-11-19T07:12:35;12.90;99.90
23544;DHT22;11950;51.230;4.012;2023-11-19T07:15:02;12.90;99.90
23544;DHT22;11950;51.230;4.012;2023-11-19T07:17:30;12.90;99.90
23544;DHT22;11950;51.230;4.012;2023-11-19T07:19:57;12.90;99.90
23544;DHT22;11950;51.230;4.012;2023-11-19T07:22:26;12.90;99.90
23544;DHT22;11950;51.230;4.012;2023-11-19T07:24:55;12.90;99.90
23544;DHT22;11950;51.230;4.012;2023-11-19T07:27:21;12.90;99.90
23544;DHT22;11950;51.230;4.012;2023-11-19T07:29:48;12.90;99.90
23544;DHT22;11950;51.230;4.012;2023-11-19T07:32:14;12.90;99.90
23544;DHT22;11950;51.230;4.012;2023-11-19T07:34:40;12.90;99.90
23544;DHT22;11950;51.230;4.012;2023-11-19T07:37:07;13.00;99.90
23544;DHT22;11950;51.230;4.012;2023-11-19T07:39:33;12.90;99.90
23544;DHT22;11950;51.230;4.012;2023-11-19T07:42:00;13.00;99.90
23544;DHT22;11950;51.230;4.012;2023-11-19T07:44:26;13.00;99.90
23544;DHT22;11950;51.230;4.012;2023-11-19T07:46:52;13.00;99.90
23544;DHT22;11950;51.230;4.012;2023-11-19T07:49:19;13.00;99.90
23544;DHT22;11950;51.230;4.012;2023-11-19T07:51:45;13.00;99.90
23544;DHT22;11950;51.230;4.012;2023-11-19T07:54:11;13.10;99.90
23544;DHT22;11950;51.230;4.012;2023-11-19T07:56:37;13.10;99.90
23544;DHT22;11950;51.230;4.012;2023-11-19T07:59:04;13.10;99.90
23544;DHT22;11950;51.230;4.012;2023-11-19T08:01:30;13.10;99.90
23544;DHT22;11950;51.230;4.012;2023-11-19T08:03:56;13.10;99.90
23544;DHT22;11950;51.230;4.012;2023-11-19T08:06:23;13.20;99.90
23544;DHT22;11950;51.230;4.012;2023-11-19T08:08:49;13.20;99.90
23544;DHT22;11950;51.230;4.012;2023-11-19T08:11:15;13.20;99.90
23544;DHT22;11950;51.230;4.012;2023-11-19T08:13:42;13.20;99.90
23544;DHT22;11950;51.230;4.012;2023-11-19T08:16:08;13.20;99.90
23544;DHT22;11950;51.230;4.012;2023-11-19T08:18:35;13.30;99.90
23544;DHT22;11950;51.230;4.012;2023-11-19T08:21:01;13.30;99.90
23544;DHT22;11950;51.230;4.012;2023-11-19T08:23:30;13.40;99.90
23544;DHT22;11950;51.230;4.012;2023-11-19T08:25:57;13.40;99.90
23544;DHT22;11950;51.230;4.012;2023-11-19T08:28:23;13.40;99.90
23544;DHT22;11950;51.230;4.012;2023-11-19T08:30:49;13.40;99.90
23544;DHT22;11950;51.230;4.012;2023-11-19T08:33:16;13.50;99.90
23544;DHT22;11950;51.230;4.012;2023-11-19T08:35:43;13.50;99.90
23544;DHT22;11950;51.230;4.012;2023-11-19T08:38:09;13.50;99.90
23544;DHT22;11950;51.230;4.012;2023-11-19T08:40:35;13.60;99.90
23544;DHT22;11950;51.230;4.012;2023-11-19T08:43:01;13.60;99.90
23544;DHT22;11950;51.230;4.012;2023-11-19T08:45:28;13.70;99.90
23544;DHT22;11950;51.230;4.012;2023-11-19T08:47:54;13.70;99.90
23544;DHT22;11950;51.230;4.012;2023-11-19T08:50:20;13.70;99.90
23544;DHT22;11950;51.230;4.012;2023-11-19T08:52:46;13.70;99.90
23544;DHT22;11950;51.230;4.012;2023-11-19T08:55:13;13.80;99.90
23544;DHT22;11950;51.230;4.012;2023-11-19T08:57:39;13.80;99.90
23544;DHT22;11950;51.230;4.012;2023-11-19T09:00:06;13.80;99.90
23544;DHT22;11950;51.230;4.012;2023-11-19T09:02:36;13.90;99.90
23544;DHT22;11950;51.230;4.012;2023-11-19T09:05:04;13.90;99.90
23544;DHT22;11950;51.230;4.012;2023-11-19T09:07:31;13.90;99.90
23544;DHT22;11950;51.230;4.012;2023-11-19T09:09:57;14.00;99.90
23544;DHT22;11950;51.230;4.012;2023-11-19T09:12:23;14.00;99.90
23544;DHT22;11950;51.230;4.012;2023-11-19T09:14:50;14.10;99.90
23544;DHT22;11950;51.230;4.012;2023-11-19T09:17:16;14.00;99.90
23544;DHT22;11950;51.230;4.012;2023-11-19T09:19:44;14.10;99.90
23544;DHT22;11950;51.230;4.012;2023-11-19T09:22:10;14.10;99.90
23544;DHT22;11950;51.230;4.012;2023-11-19T09:24:36;14.10;99.90
23544;DHT22;11950;51.230;4.012;2023-11-19T09:27:03;14.10;99.90
23544;DHT22;11950;51.230;4.012;2023-11-19T09:29:31;14.10;99.90
23544;DHT22;11950;51.230;4.012;2023-11-19T09:31:58;14.10;99.90
23544;DHT22;11950;51.230;4.012;2023-11-19T09:34:24;14.10;99.90
23544;DHT22;11950;51.230;4.012;2023-11-19T09:36:51;14.10;99.90
23544;DHT22;11950;51.230;4.012;2023-11-19T09:39:17;14.20;99.90
23544;DHT22;11950;51.230;4.012;2023-11-19T09:41:44;14.20;99.90
23544;DHT22;11950;51.230;4.012;2023-11-19T09:44:11;14.30;99.90
23544;DHT22;11950;51.230;4.012;2023-11-19T09:46:41;14.30;99.90
23544;DHT22;11950;51.230;4.012;2023-11-19T09:49:08;14.30;99.90
23544;DHT22;11950;51.230;4.012;2023-11-19T09:51:36;14.40;99.90
23544;DHT22;11950;51.230;4.012;2023-11-19T09:54:03;14.40;99.90
23544;DHT22;11950;51.230;4.012;2023-11-19T09:56:30;14.40;99.90
23544;DHT22;11950;51.230;4.012;2023-11-19T09:58:56;14.50;99.90
23544;DHT22;11950;51.230;4.012;2023-11-19T10:01:23;14.60;99.90
23544;DHT22;11950;51.230;4.012;2023-11-19T10:03:50;14.70;99.90
23544;DHT22;11950;51.230;4.012;2023-11-19T10:06:17;14.70;99.90
23544;DHT22;11950;51.230;4.012;2023-11-19T10:08:45;14.70;99.90
23544;DHT22;11950;51.230;4.012;2023-11-19T10:11:11;14.80;99.90
23544;DHT22;11950;51.230;4.012;2023-11-19T10:13:39;14.80;99.90
23544;DHT22;11950;51.230;4.012;2023-11-19T10:16:09;14.80;99.90
23544;DHT22;11950;51.230;4.012;2023-11-19T10:18:42;14.80;99.90
23544;DHT22;11950;51.230;4.012;2023-11-19T10:21:12;14.70;99.90
23544;DHT22;11950;51.230;4.012;2023-11-19T10:23:50;14.70;99.90
23544;DHT22;11950;51.230;4.012;2023-11-19T10:26:19;14.60;99.90
23544;DHT22;11950;51.230;4.012;2023-11-19T10:28:48;14.60;99.90
23544;DHT22;11950;51.230;4.012;2023-11-19T10:31:16;14.60;99.90
23544;DHT22;11950;51.230;4.012;2023-11-19T10:33:43;14.60;99.90
23544;DHT22;11950;51.230;4.012;2023-11-19T10:36:14;14.60;99.90
23544;DHT22;11950;51.230;4.012;2023-11-19T10:38:41;14.60;99.90
23544;DHT22;11950;51.230;4.012;2023-11-19T10:41:35;14.60;99.90
23544;DHT22;11950;51.230;4.012;2023-11-19T10:44:01;14.70;99.90
23544;DHT22;11950;51.230;4.012;2023-11-19T10:46:41;14.70;99.90
23544;DHT22;11950;51.230;4.012;2023-11-19T10:49:08;14.70;99.90
23544;DHT22;11950;51.230;4.012;2023-11-19T10:51:35;14.70;99.90
23544;DHT22;11950;51.230;4.012;2023-11-19T10:54:03;14.70;99.90
23544;DHT22;11950;51.230;4.012;2023-11-19T10:56:33;14.70;99.90
23544;DHT22;11950;51.230;4.012;2023-11-19T10:59:00;14.80;99.90
23544;DHT22;11950;51.230;4.012;2023-11-19T11:01:33;14.90;99.90
23544;DHT22;11950;51.230;4.012;2023-11-19T11:04:02;14.90;99.90
23544;DHT22;11950;51.230;4.012;2023-11-19T11:06:29;15.00;99.90
23544;DHT22;11950;51.230;4.012;2023-11-19T11:08:56;15.00;99.90
23544;DHT22;11950;51.230;4.012;2023-11-19T11:11:24;15.10;99.90
23544;DHT22;11950;51.230;4.012;2023-11-19T11:13:53;15.10;99.90
23544;DHT22;11950;51.230;4.012;2023-11-19T11:16:22;15.20;99.90
23544;DHT22;11950;51.230;4.012;2023-11-19T11:18:50;15.20;99.90
23544;DHT22;11950;51.230;4.012;2023-11-19T11:21:21;15.30;99.90
23544;DHT22;11950;51.230;4.012;2023-11-19T11:27:02;15.30;99.90
23544;DHT22;11950;51.230;4.012;2023-11-19T11:32:17;15.40;99.90
23544;DHT22;11950;51.230;4.012;2023-11-19T11:37:59;15.40;99.90
23544;DHT22;11950;51.230;4.012;2023-11-19T11:40:26;15.40;99.90
23544;DHT22;11950;51.230;4.012;2023-11-19T11:42:54;15.40;99.90
23544;DHT22;11950;51.230;4.012;2023-11-19T11:45:38;15.40;99.90
23544;DHT22;11950;51.230;4.012;2023-11-19T11:48:12;15.40;99.90
23544;DHT22;11950;51.230;4.012;2023-11-19T11:50:54;15.40;99.90
23544;DHT22;11950;51.230;4.012;2023-11-19T11:53:22;15.30;99.90
23544;DHT22;11950;51.230;4.012;2023-11-19T11:58:20;15.30;99.90
23544;DHT22;11950;51.230;4.012;2023-11-19T12:00:49;15.20;99.90
23544;DHT22;11950;51.230;4.012;2023-11-19T12:03:20;15.10;99.90
23544;DHT22;11950;51.230;4.012;2023-11-19T12:05:48;15.10;99.90
23544;DHT22;11950;51.230;4.012;2023-11-19T12:08:17;15.00;99.90
23544;DHT22;11950;51.230;4.012;2023-11-19T12:10:48;15.00;99.90
23544;DHT22;11950;51.230;4.012;2023-11-19T12:13:16;15.00;99.90
23544;DHT22;11950;51.230;4.012;2023-11-19T12:18:24;15.00;99.90
23544;DHT22;11950;51.230;4.012;2023-11-19T12:20:50;15.00;99.90
23544;DHT22;11950;51.230;4.012;2023-11-19T12:23:16;15.00;99.90
23544;DHT22;11950;51.230;4.012;2023-11-19T12:25:43;15.00;99.90
23544;DHT22;11950;51.230;4.012;2023-11-19T12:28:13;15.00;99.90
23544;DHT22;11950;51.230;4.012;2023-11-19T12:30:39;15.00;99.90
23544;DHT22;11950;51.230;4.012;2023-11-19T12:33:09;15.10;99.90
23544;DHT22;11950;51.230;4.012;2023-11-19T12:35:42;15.10;99.90
23544;DHT22;11950;51.230;4.012;2023-11-19T12:38:18;15.10;99.90
23544;DHT22;11950;51.230;4.012;2023-11-19T12:40:45;15.10;99.90
23544;DHT22;11950;51.230;4.012;2023-11-19T12:43:21;15.10;99.90
23544;DHT22;11950;51.230;4.012;2023-11-19T12:45:48;15.10;99.90
23544;DHT22;11950;51.230;4.012;2023-11-19T12:48:14;15.10;99.90
23544;DHT22;11950;51.230;4.012;2023-11-19T12:50:57;15.00;99.90
23544;DHT22;11950;51.230;4.012;2023-11-19T12:53:25;15.10;99.90
23544;DHT22;11950;51.230;4.012;2023-11-19T12:55:52;15.00;99.90
23544;DHT22;11950;51.230;4.012;2023-11-19T12:58:32;15.00;99.90
23544;DHT22;11950;51.230;4.012;2023-11-19T13:01:03;15.00;99.90
23544;DHT22;11950;51.230;4.012;2023-11-19T13:03:34;15.00;99.90
23544;DHT22;11950;51.230;4.012;2023-11-19T13:06:04;15.00;99.90
23544;DHT22;11950;51.230;4.012;2023-11-19T13:08:42;15.00;99.90
23544;DHT22;11950;51.230;4.012;2023-11-19T13:11:09;15.10;99.90
23544;DHT22;11950;51.230;4.012;2023-11-19T13:13:58;15.00;99.90
23544;DHT22;11950;51.230;4.012;2023-11-19T13:16:30;15.10;99.90
23544;DHT22;11950;51.230;4.012;2023-11-19T13:18:57;15.00;99.90
23544;DHT22;11950;51.230;4.012;2023-11-19T13:21:24;15.00;99.90
23544;DHT22;11950;51.230;4.012;2023-11-19T13:23:50;15.00;99.90
23544;DHT22;11950;51.230;4.012;2023-11-19T13:26:17;15.00;99.90
23544;DHT22;11950;51.230;4.012;2023-11-19T13:28:43;15.00;99.90
23544;DHT22;11950;51.230;4.012;2023-11-19T13:31:09;15.00;99.90
23544;DHT22;11950;51.230;4.012;2023-11-19T13:33:36;15.00;99.90
23544;DHT22;11950;51.230;4.012;2023-11-19T13:36:03;15.00;99.90
23544;DHT22;11950;51.230;4.012;2023-11-19T13:38:36;15.00;99.90
23544;DHT22;11950;51.230;4.012;2023-11-19T13:41:03;15.00;99.90
23544;DHT22;11950;51.230;4.012;2023-11-19T13:43:32;15.00;99.90
23544;DHT22;11950;51.230;4.012;2023-11-19T13:45:59;14.90;99.90
23544;DHT22;11950;51.230;4.012;2023-11-19T13:48:25;14.90;99.90
23544;DHT22;11950;51.230;4.012;2023-11-19T13:50:53;14.90;99.90
23544;DHT22;11950;51.230;4.012;2023-11-19T13:53:19;14.90;99.90
23544;DHT22;11950;51.230;4.012;2023-11-19T13:55:46;14.90;99.90
23544;DHT22;11950;51.230;4.012;2023-11-19T13:58:12;14.90;99.90
23544;DHT22;11950;51.230;4.012;2023-11-19T14:00:38;14.90;99.90
23544;DHT22;11950;51.230;4.012;2023-11-19T14:03:05;14.90;99.90
23544;DHT22;11950;51.230;4.012;2023-11-19T14:05:31;14.90;99.90
23544;DHT22;11950;51.230;4.012;2023-11-19T14:07:57;14.80;99.90
23544;DHT22;11950;51.230;4.012;2023-11-19T14:10:24;14.80;99.90
23544;DHT22;11950;51.230;4.012;2023-11-19T14:12:50;14.80;99.90
23544;DHT22;11950;51.230;4.012;2023-11-19T14:15:16;14.70;99.90
23544;DHT22;11950;51.230;4.012;2023-11-19T14:17:45;14.70;99.90
23544;DHT22;11950;51.230;4.012;2023-11-19T14:20:12;14.70;99.90
23544;DHT22;11950;51.230;4.012;2023-11-19T14:22:42;14.70;99.90
23544;DHT22;11950;51.230;4.012;2023-11-19T14:25:09;14.70;99.90
23544;DHT22;11950;51.230;4.012;2023-11-19T14:27:37;14.80;99.90
23544;DHT22;11950;51.230;4.012;2023-11-19T14:30:10;14.80;99.90
23544;DHT22;11950;51.230;4.012;2023-11-19T14:32:38;14.80;99.90
23544;DHT22;11950;51.230;4.012;2023-11-19T14:35:05;14.70;99.90
23544;DHT22;11950;51.230;4.012;2023-11-19T14:37:32;14.70;99.90
23544;DHT22;11950;51.230;4.012;2023-11-19T14:39:59;14.70;99.90
23544;DHT22;11950;51.230;4.012;2023-11-19T14:42:26;14.80;99.90
23544;DHT22;11950;51.230;4.012;2023-11-19T14:44:53;14.70;99.90
23544;DHT22;11950;51.230;4.012;2023-11-19T14:47:22;14.70;99.90
23544;DHT22;11950;51.230;4.012;2023-11-19T14:49:49;14.70;99.90
23544;DHT22;11950;51.230;4.012;2023-11-19T14:52:15;14.70;99.90
23544;DHT22;11950;51.230;4.012;2023-11-19T14:54:41;14.70;99.90
23544;DHT22;11950;51.230;4.012;2023-11-19T14:57:08;14.60;99.90
23544;DHT22;11950;51.230;4.012;2023-11-19T14:59:34;14.70;99.90
23544;DHT22;11950;51.230;4.012;2023-11-19T15:02:01;14.60;99.90
23544;DHT22;11950;51.230;4.012;2023-11-19T15:04:27;14.60;99.90
23544;DHT22;11950;51.230;4.012;2023-11-19T15:06:56;14.60;99.90
23544;DHT22;11950;51.230;4.012;2023-11-19T15:09:22;14.60;99.90
23544;DHT22;11950;51.230;4.012;2023-11-19T15:11:49;14.60;99.90
23544;DHT22;11950;51.230;4.012;2023-11-19T15:14:15;14.60;99.90
23544;DHT22;11950;51.230;4.012;2023-11-19T15:16:45;14.60;99.90
23544;DHT22;11950;51.230;4.012;2023-11-19T15:19:13;14.50;99.90
23544;DHT22;11950;51.230;4.012;2023-11-19T15:21:43;14.60;99.90
23544;DHT22;11950;51.230;4.012;2023-11-19T15:24:09;14.50;99.90
23544;DHT22;11950;51.230;4.012;2023-11-19T15:26:37;14.50;99.90
23544;DHT22;11950;51.230;4.012;2023-11-19T15:29:04;14.40;99.90
23544;DHT22;11950;51.230;4.012;2023-11-19T15:31:32;14.40;99.90
23544;DHT22;11950;51.230;4.012;2023-11-19T15:33:58;14.40;99.90
23544;DHT22;11950;51.230;4.012;2023-11-19T15:36:24;14.40;99.90
23544;DHT22;11950;51.230;4.012;2023-11-19T15:38:51;14.40;99.90
23544;DHT22;11950;51.230;4.012;2023-11-19T15:41:17;14.40;99.90
23544;DHT22;11950;51.230;4.012;2023-11-19T15:43:43;14.40;99.90
23544;DHT22;11950;51.230;4.012;2023-11-19T15:46:10;14.40;99.90